Time;durP1;ratioP1;P1;durP2;ratioP2;P2;SDS_P1;SDS_P2;PMS_P1;PMS_P2;Temp;Humidity;BMP_temperature;BMP_pressure;BME280_temperature;BME280_humidity;BME280_pressure;Samples;Min_cycle;Max_cycle;Signal;HPM_P1;HPM_P2
2022/03/21 00:02:23;;;;;;;28.13;15.52;;;;;;;-0.96;55.44;102010.25;5128813;28;20047;-30
2022/03/21 00:04:49;;;;;;;30.85;17.55;;;;;;;-1.03;55.86;101991.47;5109870;28;20023;-30
2022/03/21 00:07:14;;;;;;;32.03;16.23;;;;;;;-1.20;56.15;101995.16;5110160;28;20091;-33
2022/03/21 00:09:40;;;;;;;32.78;16.40;;;;;;;-1.02;55.97;101990.56;5128497;28;20035;-31
2022/03/21 00:12:06;;;;;;;29.40;15.52;;;;;;;-1.04;55.88;101968.88;5128163;27;20030;-30
2022/03/21 00:14:32;;;;;;;29.55;15.13;;;;;;;-0.77;56.13;102002.09;5128416;28;20034;-29
2022/03/21 00:16:59;;;;;;;31.15;15.50;;;;;;;-0.87;55.79;101971.25;5128285;28;20032;-29
2022/03/21 00:19:24;;;;;;;35.55;14.95;;;;;;;-0.87;55.81;101986.97;5128295;28;20028;-36
2022/03/21 00:21:49;;;;;;;28.65;14.93;;;;;;;-0.82;55.83;101984.91;5128276;27;20035;-34
2022/03/21 00:24:15;;;;;;;27.05;13.85;;;;;;;-0.60;55.79;101999.22;5128259;28;20399;-35
2022/03/21 00:26:40;;;;;;;23.40;13.60;;;;;;;-0.90;56.04;101955.72;5127960;27;20074;-40
2022/03/21 00:29:07;;;;;;;27.77;14.60;;;;;;;-0.73;56.10;101977.41;5127992;27;20076;-31
2022/03/21 00:31:35;;;;;;;28.88;13.50;;;;;;;-0.64;55.74;101997.75;5109573;28;20836;-29
2022/03/21 00:34:01;;;;;;;25.47;12.77;;;;;;;-0.51;56.02;101985.56;5109602;28;20069;-31
2022/03/21 00:36:27;;;;;;;26.60;13.13;;;;;;;-0.81;55.91;101949.91;5128299;27;20023;-29
2022/03/21 00:38:53;;;;;;;23.30;11.82;;;;;;;-0.70;56.38;101980.63;5127764;27;20049;-34
2022/03/21 00:41:21;;;;;;;24.98;13.20;;;;;;;-0.43;56.03;101999.00;5130992;27;20427;-29
2022/03/21 00:43:47;;;;;;;23.48;12.07;;;;;;;-0.29;55.29;101995.44;5132016;27;20045;-31
2022/03/21 00:46:13;;;;;;;23.70;12.65;;;;;;;-0.24;56.17;101987.31;5131981;27;20027;-29
2022/03/21 00:48:38;;;;;;;22.90;13.38;;;;;;;-0.04;54.35;101986.81;5131736;27;20031;-29
2022/03/21 00:51:03;;;;;;;26.88;13.48;;;;;;;0.09;55.03;101996.50;5131642;27;20030;-29
2022/03/21 00:53:30;;;;;;;22.35;12.43;;;;;;;0.12;54.94;101994.50;5131609;27;20494;-31
2022/03/21 00:55:55;;;;;;;21.55;11.90;;;;;;;0.06;55.08;101996.69;5113231;27;20464;-31
2022/03/21 00:58:21;;;;;;;25.52;13.27;;;;;;;-0.09;55.09;101988.91;5131626;27;20088;-29
2022/03/21 01:00:47;;;;;;;25.48;12.70;;;;;;;-0.13;55.13;101987.41;5131377;27;20023;-30
2022/03/21 01:03:13;;;;;;;20.02;11.40;;;;;;;-0.36;56.29;101960.09;5131556;27;20031;-30
2022/03/21 01:05:38;;;;;;;18.85;10.43;;;;;;;-0.49;56.55;101949.59;5131455;27;20027;-29
2022/03/21 01:08:05;;;;;;;19.58;11.43;;;;;;;-0.57;57.77;101977.22;5131365;27;20092;-33
2022/03/21 01:10:31;;;;;;;19.58;10.93;;;;;;;-0.73;56.86;101953.81;5112898;27;20027;-28
2022/03/21 01:12:57;;;;;;;24.63;11.95;;;;;;;-0.38;56.64;101974.28;5131173;27;20067;-29
2022/03/21 01:15:25;;;;;;;22.80;12.43;;;;;;;-0.21;56.91;101966.94;5131409;27;20090;-30
2022/03/21 01:17:51;;;;;;;27.25;13.85;;;;;;;-0.29;56.72;101966.63;5131183;27;20027;-31
2022/03/21 01:20:19;;;;;;;21.25;12.30;;;;;;;-0.46;56.00;101946.75;5131246;27;20856;-30
2022/03/21 01:22:45;;;;;;;17.73;10.23;;;;;;;-0.33;57.06;101956.44;5112452;27;20091;-29
2022/03/21 01:25:12;;;;;;;18.25;10.10;;;;;;;-0.38;56.53;101963.78;5112378;27;20040;-31
2022/03/21 01:27:38;;;;;;;20.92;11.63;;;;;;;-0.36;56.60;101964.53;5112563;27;20476;-30
2022/03/21 01:30:08;;;;;;;20.27;10.95;;;;;;;-0.33;56.92;101948.56;5112543;27;20072;-31
2022/03/21 01:32:34;;;;;;;19.15;9.98;;;;;;;-0.15;55.76;101957.84;5112114;27;20051;-29
2022/03/21 01:35:00;;;;;;;19.95;10.25;;;;;;;-0.09;55.21;101941.69;5112188;27;20505;-30
2022/03/21 01:37:26;;;;;;;20.85;10.90;;;;;;;0.08;55.75;101958.06;5130616;27;20059;-30
2022/03/21 01:39:51;;;;;;;20.83;11.05;;;;;;;-0.09;55.89;101936.44;5131051;27;20130;-36
2022/03/21 01:42:17;;;;;;;20.08;10.38;;;;;;;-0.09;55.63;101933.81;5130962;27;20027;-33
2022/03/21 01:44:42;;;;;;;24.60;11.63;;;;;;;0.16;54.76;101929.53;5112278;27;20126;-31
2022/03/21 01:47:09;;;;;;;20.27;11.13;;;;;;;0.25;55.09;101943.81;5130757;27;20027;-29
2022/03/21 01:49:35;;;;;;;19.88;11.13;;;;;;;0.28;54.72;101954.94;5130520;27;20399;-30
2022/03/21 01:52:00;;;;;;;19.17;11.00;;;;;;;0.03;55.56;101918.22;5111834;27;20037;-35
2022/03/21 01:57:11;;;;;;;17.77;9.93;;;;;;;-0.06;56.32;101946.75;5130410;27;20030;-29
2022/03/21 01:59:37;;;;;;;21.33;10.60;;;;;;;-0.05;56.09;101950.19;5111815;27;20034;-32
2022/03/21 02:02:05;;;;;;;19.58;10.10;;;;;;;-0.31;57.69;101952.75;5130412;27;20418;-32
2022/03/21 02:04:31;;;;;;;22.55;11.32;;;;;;;-0.45;57.78;101950.22;5111414;27;20418;-31
2022/03/21 02:06:57;;;;;;;19.00;10.55;;;;;;;-0.59;57.71;101932.78;5111645;27;20035;-31
2022/03/21 02:09:23;;;;;;;21.10;11.15;;;;;;;-0.32;57.29;101947.66;5111648;27;20700;-30
2022/03/21 02:11:49;;;;;;;23.33;11.75;;;;;;;-0.65;58.06;101925.34;5130206;27;20038;-37
2022/03/21 02:14:14;;;;;;;21.08;10.25;;;;;;;-0.76;58.46;101944.34;5111526;27;20023;-31
2022/03/21 02:16:40;;;;;;;18.33;10.23;;;;;;;-0.77;58.53;101949.72;5111400;27;20027;-32
2022/03/21 02:19:21;;;;;;;22.48;10.88;;;;;;;-0.78;58.82;101948.84;5129589;27;20031;-29
2022/03/21 02:22:22;;;;;;;19.20;11.43;;;;;;;-0.48;57.98;101951.25;5111541;27;20032;-29
2022/03/21 02:25:11;;;;;;;20.92;10.50;;;;;;;-0.52;58.21;101960.25;5107617;27;20071;-33
2022/03/21 02:27:38;;;;;;;19.77;11.10;;;;;;;-0.65;57.70;101938.44;5111674;27;20481;-30
2022/03/21 02:30:05;;;;;;;23.23;10.35;;;;;;;-0.38;57.12;101946.25;5111511;27;20029;-29
2022/03/21 02:32:30;;;;;;;19.80;11.43;;;;;;;-0.45;57.39;101955.47;5107675;28;20051;-30
2022/03/21 02:34:56;;;;;;;20.50;10.65;;;;;;;-0.57;58.17;101956.25;5108989;28;20100;-29
2022/03/21 02:37:23;;;;;;;21.98;11.55;;;;;;;-0.58;58.18;101954.59;5109184;28;20054;-34
2022/03/21 02:39:50;;;;;;;22.17;12.13;;;;;;;-0.57;57.51;101944.03;5108972;28;20023;-32
2022/03/21 02:42:15;;;;;;;25.50;11.90;;;;;;;-0.39;57.19;101948.97;5109433;28;20036;-32
2022/03/21 02:44:41;;;;;;;21.20;12.10;;;;;;;-0.27;56.98;101958.66;5109350;28;20028;-29
2022/03/21 02:47:08;;;;;;;21.88;11.98;;;;;;;-0.21;56.78;101973.97;5107520;28;20028;-29
2022/03/21 02:49:35;;;;;;;23.97;12.27;;;;;;;-0.24;56.30;101945.34;5107583;28;20032;-34
2022/03/21 02:52:04;;;;;;;20.48;11.13;;;;;;;-0.21;56.52;101966.94;5107376;28;20059;-35
2022/03/21 02:54:30;;;;;;;24.63;13.60;;;;;;;-0.23;55.79;101954.88;5107141;28;20031;-29
2022/03/21 02:56:56;;;;;;;21.35;11.80;;;;;;;-0.08;55.67;101968.75;5107244;28;20034;-29
2022/03/21 02:59:21;;;;;;;22.02;12.05;;;;;;;-0.08;55.59;101953.88;5107550;28;20039;-29
2022/03/21 03:01:47;;;;;;;23.30;12.65;;;;;;;0.03;55.53;101953.16;5107385;28;20031;-29
2022/03/21 03:04:13;;;;;;;21.00;12.40;;;;;;;0.38;54.31;101958.59;5106949;28;20131;-31
2022/03/21 03:06:39;;;;;;;23.58;12.63;;;;;;;0.19;55.35;101977.41;5108672;28;20027;-30
2022/03/21 03:09:09;;;;;;;22.15;13.05;;;;;;;0.01;55.41;101972.56;5108405;28;20444;-29
2022/03/21 03:11:38;;;;;;;23.60;11.50;;;;;;;0.03;56.55;101966.25;5107301;28;20027;-32
2022/03/21 03:14:05;;;;;;;21.95;12.00;;;;;;;0.23;55.03;101966.72;5107058;28;20028;-34
2022/03/21 03:16:31;;;;;;;22.30;13.15;;;;;;;-0.01;55.57;101960.38;5107160;28;20028;-29
2022/03/21 03:18:57;;;;;;;21.42;12.52;;;;;;;-0.20;55.70;101944.22;5108159;28;20032;-31
2022/03/21 03:21:25;;;;;;;24.80;12.52;;;;;;;-0.22;56.66;101959.22;5108424;28;20019;-34
2022/03/21 03:23:51;;;;;;;24.85;12.20;;;;;;;-0.36;56.10;101938.31;5106864;28;20028;-29
2022/03/21 03:26:17;;;;;;;21.63;12.32;;;;;;;-0.41;56.63;101942.06;5107364;28;20498;-31
2022/03/21 03:28:44;;;;;;;27.73;13.88;;;;;;;-0.25;56.34;101972.50;5108473;28;20035;-32
2022/03/21 03:31:11;;;;;;;28.08;13.90;;;;;;;-0.60;57.54;101967.78;5106832;28;20028;-30
2022/03/21 03:33:37;;;;;;;28.60;14.27;;;;;;;-0.85;57.77;101952.81;5106339;28;20054;-32
2022/03/21 03:36:03;;;;;;;27.92;12.57;;;;;;;-1.14;58.60;101934.56;5106610;28;20038;-31
2022/03/21 03:38:28;;;;;;;22.60;12.52;;;;;;;-1.14;60.11;101962.53;5108514;28;20028;-34
2022/03/21 03:40:54;;;;;;;22.35;11.88;;;;;;;-1.36;60.24;101927.19;5108473;28;20035;-29
2022/03/21 03:43:20;;;;;;;23.92;12.55;;;;;;;-1.27;60.59;101957.19;5108538;28;20097;-31
2022/03/21 03:45:48;;;;;;;22.95;12.95;;;;;;;-1.41;60.52;101955.41;5108230;28;20070;-31
2022/03/21 03:48:14;;;;;;;23.73;12.10;;;;;;;-1.31;60.36;101967.03;5108312;28;20122;-29
2022/03/21 03:50:40;;;;;;;26.35;15.05;;;;;;;-1.58;61.13;101960.84;5107832;28;20106;-32
2022/03/21 03:53:05;;;;;;;26.73;16.05;;;;;;;-1.56;61.24;101991.22;5108092;28;20464;-30
2022/03/21 03:55:31;;;;;;;27.10;14.00;;;;;;;-1.42;60.70;101993.84;5108034;28;20043;-30
2022/03/21 03:57:56;;;;;;;26.33;12.70;;;;;;;-1.37;59.60;101983.09;5106686;28;20043;-29
2022/03/21 04:00:22;;;;;;;27.08;13.88;;;;;;;-1.42;60.64;102006.09;5108195;28;20030;-31
2022/03/21 04:05:31;;;;;;;24.45;14.50;;;;;;;-1.11;58.38;101978.03;5107857;28;20034;-32
2022/03/21 04:07:57;;;;;;;29.10;16.52;;;;;;;-1.22;59.01;101978.69;5108009;28;20118;-29
2022/03/21 04:10:22;;;;;;;28.30;13.55;;;;;;;-1.11;58.92;101997.19;5107932;28;20024;-31
2022/03/21 04:12:49;;;;;;;30.65;15.05;;;;;;;-1.05;58.90;101998.59;5106076;28;20050;-35
2022/03/21 04:15:19;;;;;;;25.85;14.20;;;;;;;-0.99;58.73;101992.97;5107824;28;20059;-30
2022/03/21 04:17:45;;;;;;;27.33;14.18;;;;;;;-0.99;58.64;101987.72;5111559;28;20034;-31
2022/03/21 04:20:11;;;;;;;24.02;14.55;;;;;;;-0.90;58.34;101987.16;5112004;28;20063;-32
2022/03/21 04:22:37;;;;;;;27.27;13.43;;;;;;;-1.11;59.17;101975.41;5110494;28;20031;-29
2022/03/21 04:25:04;;;;;;;26.55;14.55;;;;;;;-1.02;58.39;101990.56;5111647;28;20031;-30
2022/03/21 04:27:30;;;;;;;28.70;15.07;;;;;;;-0.97;57.43;101982.41;5110080;28;20802;-29
2022/03/21 04:29:55;;;;;;;25.63;13.57;;;;;;;-1.05;58.43;101988.94;5109733;28;20035;-30
2022/03/21 04:32:21;;;;;;;29.33;14.77;;;;;;;-1.36;58.43;101949.91;5117160;27;20059;-31
2022/03/21 04:34:46;;;;;;;32.15;16.88;;;;;;;-1.40;58.84;101957.13;5113491;27;20035;-32
2022/03/21 04:37:12;;;;;;;36.65;17.65;;;;;;;-1.32;59.07;101960.09;5132106;27;20115;-31
2022/03/21 04:39:37;;;;;;;28.98;16.33;;;;;;;-1.47;59.78;101955.78;5131673;27;20027;-29
2022/03/21 04:42:03;;;;;;;28.83;15.30;;;;;;;-1.36;59.53;101978.72;5113412;27;20027;-29
2022/03/21 04:44:28;;;;;;;28.02;15.02;;;;;;;-1.58;59.86;101955.63;5131692;27;20035;-30
2022/03/21 04:46:54;;;;;;;25.77;13.88;;;;;;;-1.44;59.46;101971.31;5131370;27;20106;-29
2022/03/21 04:49:19;;;;;;;25.13;12.93;;;;;;;-1.53;60.11;101964.88;5131837;27;20094;-29
2022/03/21 04:51:45;;;;;;;27.45;13.77;;;;;;;-1.32;59.80;101961.88;5131703;27;20380;-32
2022/03/21 04:54:10;;;;;;;25.27;13.45;;;;;;;-1.21;59.44;101967.28;5131707;27;20031;-34
2022/03/21 04:56:36;;;;;;;24.63;13.35;;;;;;;-1.25;60.41;101940.47;5113121;27;20027;-29
2022/03/21 04:59:02;;;;;;;24.17;13.20;;;;;;;-1.36;60.23;101953.38;5131421;27;20066;-30
2022/03/21 05:01:27;;;;;;;24.45;12.23;;;;;;;-1.24;59.82;101957.84;5112535;27;20407;-29
2022/03/21 05:03:53;;;;;;;27.23;12.55;;;;;;;-1.37;60.28;101967.38;5131447;27;20031;-30
2022/03/21 05:06:19;;;;;;;35.53;12.07;;;;;;;-1.29;59.24;101964.28;5131375;27;20030;-31
2022/03/21 05:08:45;;;;;;;29.80;13.77;;;;;;;-1.20;60.42;101968.16;5131372;27;20031;-29
2022/03/21 05:11:10;;;;;;;48.13;21.08;;;;;;;-0.89;59.85;101969.66;5130965;27;20038;-36
2022/03/21 05:13:37;;;;;;;37.13;18.42;;;;;;;-0.67;59.15;101971.75;5131184;27;20038;-36
2022/03/21 05:16:05;;;;;;;28.05;14.52;;;;;;;-0.53;58.08;101962.97;5131033;27;20109;-33
2022/03/21 05:18:34;;;;;;;;;;;;;;;-0.25;58.44;101980.38;5131636;27;20023;-30
2022/03/21 05:21:01;;;;;;;22.08;11.80;;;;;;;-0.13;57.45;101976.94;5131063;27;20586;-30
2022/03/21 05:31:38;;;;;;;23.38;10.93;;;;;;;0.29;56.43;101988.13;5130425;27;20066;-31
2022/03/21 05:36:48;;;;;;;20.65;11.55;;;;;;;0.29;57.25;101993.38;5130344;27;20489;-33
2022/03/21 05:39:13;;;;;;;20.30;11.45;;;;;;;0.34;55.91;101975.50;5111987;27;20023;-29
2022/03/21 05:41:39;;;;;;;23.60;12.88;;;;;;;0.45;56.39;101976.56;5130811;27;20033;-29
2022/03/21 05:44:04;;;;;;;44.92;24.42;;;;;;;0.73;55.46;101986.81;5130782;27;20023;-32
2022/03/21 05:46:30;;;;;;;42.05;20.48;;;;;;;0.80;54.63;101977.56;5130626;27;20430;-29
2022/03/21 05:49:02;;;;;;;23.63;13.23;;;;;;;1.12;53.94;101982.31;5130319;27;20031;-29
2022/03/21 05:51:32;;;;;;;23.08;11.35;;;;;;;1.30;52.09;102000.34;5130402;27;20503;-34
2022/03/21 05:54:05;;;;;;;21.30;12.95;;;;;;;1.23;52.71;101967.56;5130500;27;20023;-34
2022/03/21 05:56:31;;;;;;;24.23;12.68;;;;;;;1.35;51.66;101987.72;5112258;27;20407;-29
2022/03/21 06:00:20;;;;;;;22.15;11.15;;;;;;;1.19;51.93;102004.59;5111507;27;20093;-29
2022/03/21 06:01:43;;;;;;;22.70;12.85;;;;;;;1.12;53.17;102008.59;5130009;27;20050;-31
2022/03/21 06:04:09;;;;;;;23.50;13.93;;;;;;;1.33;53.59;101989.63;5129938;27;20027;-29
2022/03/21 06:06:34;;;;;;;26.50;12.50;;;;;;;1.49;53.13;102000.69;5130352;27;20046;-32
2022/03/21 06:09:00;;;;;;;22.25;12.77;;;;;;;1.73;51.17;102007.72;5111216;27;20627;-29
2022/03/21 06:11:26;;;;;;;18.92;11.38;;;;;;;1.70;50.26;102003.53;5111400;27;20030;-30
2022/03/21 06:13:51;;;;;;;21.05;12.32;;;;;;;1.41;52.07;102016.19;5111267;27;20034;-30
2022/03/21 06:16:17;;;;;;;23.95;12.98;;;;;;;1.67;52.36;102014.28;5129935;27;20041;-30
2022/03/21 06:18:43;;;;;;;23.58;12.32;;;;;;;1.73;51.06;102007.72;5129500;27;20807;-32
2022/03/21 06:21:09;;;;;;;25.48;13.07;;;;;;;1.70;51.39;102016.69;5129894;27;20054;-36
2022/03/21 06:23:36;;;;;;;22.63;12.43;;;;;;;1.59;52.72;102014.00;5111236;27;20019;-30
2022/03/21 06:26:03;;;;;;;27.13;14.32;;;;;;;2.04;53.55;102015.97;5130045;27;20038;-30
2022/03/21 06:28:29;;;;;;;20.70;12.02;;;;;;;1.88;52.44;101995.22;5111224;27;20485;-32
2022/03/21 06:30:56;;;;;;;24.35;13.30;;;;;;;2.42;50.58;102000.72;5110911;27;20379;-29
2022/03/21 06:33:25;;;;;;;23.23;13.95;;;;;;;2.54;51.67;102013.91;5110846;27;20047;-29
2022/03/21 06:35:50;;;;;;;;;;;;;;;2.53;50.13;102009.59;5111692;27;20019;-31
2022/03/21 06:38:16;;;;;;;24.02;12.63;;;;;;;2.33;50.39;101979.53;5128962;27;19914;-33
2022/03/21 06:40:42;;;;;;;22.40;11.48;;;;;;;2.55;50.33;101994.50;5111129;27;20088;-32
2022/03/21 06:43:09;;;;;;;24.45;14.85;;;;;;;2.84;50.57;102005.44;5129379;27;20031;-30
2022/03/21 06:45:34;;;;;;;19.90;12.25;;;;;;;3.17;49.64;102007.19;5110608;27;20062;-38
2022/03/21 06:48:00;;;;;;;22.40;12.77;;;;;;;3.47;49.10;101992.47;5129325;27;20094;-37
2022/03/21 06:50:26;;;;;;;22.10;12.45;;;;;;;3.52;48.09;101998.22;5129581;27;20024;-32
2022/03/21 06:52:52;;;;;;;20.20;12.88;;;;;;;3.38;47.49;101983.50;5128886;27;20031;-31
2022/03/21 06:55:19;;;;;;;22.17;11.68;;;;;;;3.59;46.96;102002.00;5129146;27;20023;-30
2022/03/21 06:57:45;;;;;;;21.88;11.85;;;;;;;3.59;47.93;102002.00;5110436;27;20033;-33
2022/03/21 07:00:13;;;;;;;20.27;11.45;;;;;;;3.79;47.58;102003.03;5110277;27;20034;-33
2022/03/21 07:02:39;;;;;;;19.70;11.85;;;;;;;3.88;47.65;101990.84;5110538;27;20097;-37
2022/03/21 07:05:07;;;;;;;25.58;12.30;;;;;;;4.00;46.52;101997.78;5110535;27;20049;-33
2022/03/21 07:07:33;;;;;;;20.90;12.45;;;;;;;4.53;45.41;102007.38;5110410;27;20105;-31
2022/03/21 07:09:59;;;;;;;22.73;12.85;;;;;;;4.57;45.07;102005.31;5110572;27;20059;-32
2022/03/21 07:12:25;;;;;;;21.48;12.88;;;;;;;4.68;44.42;101994.69;5110165;27;20484;-33
2022/03/21 07:14:50;;;;;;;20.90;13.15;;;;;;;5.08;44.75;101991.19;5128514;27;20027;-31
2022/03/21 07:17:20;;;;;;;19.05;12.13;;;;;;;5.21;43.67;101994.44;5110778;27;20025;-30
2022/03/21 07:19:46;;;;;;;23.08;12.38;;;;;;;5.36;41.91;101983.44;5128862;27;20067;-32
2022/03/21 07:22:12;;;;;;;19.83;11.07;;;;;;;5.51;39.98;101997.94;5128924;27;20123;-31
2022/03/21 07:24:38;;;;;;;20.25;12.75;;;;;;;5.54;41.56;101986.25;5128757;27;20031;-31
2022/03/21 07:27:04;;;;;;;19.38;11.98;;;;;;;5.70;42.38;101980.38;5128675;27;20491;-31
2022/03/21 07:29:29;;;;;;;22.92;13.07;;;;;;;5.65;41.14;101988.75;5128433;27;20035;-32
2022/03/21 07:31:55;;;;;;;19.10;12.45;;;;;;;5.88;42.08;101986.66;5128704;27;20047;-31
2022/03/21 07:34:20;;;;;;;21.33;12.32;;;;;;;5.96;41.30;101970.91;5110134;28;20471;-32
2022/03/21 07:36:46;;;;;;;19.40;11.30;;;;;;;5.90;41.00;101986.50;5110122;28;20501;-29
2022/03/21 07:39:13;;;;;;;21.50;13.23;;;;;;;5.92;38.88;101980.09;5128352;28;20027;-30
2022/03/21 07:41:39;;;;;;;17.13;12.18;;;;;;;5.81;39.74;101975.78;5109938;28;20047;-34
2022/03/21 07:44:05;;;;;;;19.25;12.10;;;;;;;6.09;40.09;101969.78;5128272;27;20031;-33
2022/03/21 07:49:14;;;;;;;19.23;12.30;;;;;;;6.65;37.63;101971.56;5129862;27;20038;-29
2022/03/21 07:51:43;;;;;;;19.30;11.93;;;;;;;6.92;37.69;101957.47;5132634;27;20027;-30
2022/03/21 07:54:08;;;;;;;;;;;;;;;7.01;38.13;101966.38;5133110;27;20015;-29
2022/03/21 07:56:34;;;;;;;17.90;12.05;;;;;;;7.17;37.39;101958.59;5132278;27;19915;-31
2022/03/21 07:59:01;;;;;;;19.70;10.75;;;;;;;7.23;37.42;101959.78;5132582;27;20027;-30
2022/03/21 08:01:29;;;;;;;20.35;12.20;;;;;;;7.28;36.19;101938.13;5114108;27;20031;-30
2022/03/21 08:03:58;;;;;;;16.30;10.30;;;;;;;7.43;36.45;101955.19;5132708;27;20135;-31
2022/03/21 08:06:24;;;;;;;17.13;11.07;;;;;;;7.48;35.28;101939.66;5113907;27;20027;-33
2022/03/21 08:08:50;;;;;;;15.50;9.35;;;;;;;7.68;33.11;101958.06;5113661;27;20122;-30
2022/03/21 08:11:17;;;;;;;15.85;9.35;;;;;;;7.16;31.50;101946.28;5132243;27;20535;-33
2022/03/21 08:13:43;;;;;;;14.88;9.10;;;;;;;7.68;31.76;101947.44;5113873;27;20155;-30
2022/03/21 08:16:08;;;;;;;22.77;11.73;;;;;;;7.97;31.95;101934.72;5132435;27;20047;-32
2022/03/21 08:18:37;;;;;;;16.80;10.38;;;;;;;8.45;31.61;101936.00;5132286;27;20031;-29
2022/03/21 08:21:03;;;;;;;15.32;9.48;;;;;;;8.77;30.35;101950.44;5113384;27;20023;-30
2022/03/21 08:23:29;;;;;;;15.13;8.95;;;;;;;8.73;27.16;101935.81;5113124;27;20027;-33
2022/03/21 08:25:57;;;;;;;80.80;35.75;;;;;;;9.10;28.90;101942.56;5113675;27;20034;-30
2022/03/21 08:28:23;;;;;;;23.75;11.75;;;;;;;9.11;26.81;101914.94;5132134;27;20038;-31
2022/03/21 08:30:48;;;;;;;19.25;10.70;;;;;;;9.56;27.06;101931.47;5131793;27;20422;-33
2022/03/21 08:33:15;;;;;;;17.80;10.90;;;;;;;9.85;28.07;101915.81;5131498;27;20589;-30
2022/03/21 08:35:40;;;;;;;14.90;10.00;;;;;;;9.47;28.31;101933.28;5113325;27;20030;-31
2022/03/21 08:38:08;;;;;;;14.13;9.02;;;;;;;9.41;28.30;101931.28;5131675;27;20046;-29
2022/03/21 08:40:36;;;;;;;14.18;9.98;;;;;;;9.34;27.99;101914.31;5113183;27;20115;-31
2022/03/21 08:43:02;;;;;;;14.02;9.27;;;;;;;9.59;29.60;101939.97;5113041;27;20068;-33
2022/03/21 08:45:27;;;;;;;21.10;10.20;;;;;;;9.42;24.98;101919.66;5113190;27;20034;-32
2022/03/21 08:47:53;;;;;;;27.33;11.05;;;;;;;9.51;23.27;101934.63;5131933;27;20027;-33
2022/03/21 08:50:20;;;;;;;13.07;5.90;;;;;;;9.85;23.76;101936.28;5112958;27;20084;-31
2022/03/21 08:52:46;;;;;;;29.15;12.68;;;;;;;10.11;24.06;101921.91;5112700;27;20038;-32
2022/03/21 08:55:13;;;;;;;16.67;8.10;;;;;;;9.82;23.23;101936.63;5131187;27;20038;-31
2022/03/21 08:57:39;;;;;;;15.93;8.18;;;;;;;9.75;23.41;101928.47;5131514;27;20036;-31
2022/03/21 09:00:10;;;;;;;13.98;5.88;;;;;;;9.63;22.79;101929.81;5131180;27;20037;-31
2022/03/21 09:02:36;;;;;;;27.38;10.55;;;;;;;9.93;23.94;101917.63;5130930;27;20110;-29
2022/03/21 09:05:05;;;;;;;11.00;6.15;;;;;;;9.87;22.92;101899.66;5112336;27;20524;-34
2022/03/21 09:07:31;;;;;;;12.82;5.72;;;;;;;10.11;23.20;101901.41;5112789;27;20139;-30
2022/03/21 09:09:57;;;;;;;15.23;7.00;;;;;;;10.60;24.37;101903.97;5131490;27;20035;-29
2022/03/21 09:12:23;;;;;;;26.60;10.13;;;;;;;10.35;24.94;101900.53;5112703;27;20498;-33
2022/03/21 09:14:48;;;;;;;12.52;5.53;;;;;;;10.49;23.35;101895.50;5130859;27;20045;-31
2022/03/21 09:17:14;;;;;;;9.93;5.80;;;;;;;10.27;23.54;101900.53;5112448;27;20031;-29
2022/03/21 09:19:40;;;;;;;14.70;6.72;;;;;;;11.01;22.03;101895.72;5112381;27;20031;-32
2022/03/21 09:22:05;;;;;;;14.15;6.00;;;;;;;10.94;23.21;101904.59;5112152;27;20051;-32
2022/03/21 09:24:32;;;;;;;11.63;5.82;;;;;;;10.74;22.46;101890.88;5131085;27;20027;-30
2022/03/21 09:26:58;;;;;;;19.75;8.90;;;;;;;10.94;21.95;101891.25;5112387;27;20038;-32
2022/03/21 09:29:24;;;;;;;15.00;6.38;;;;;;;11.30;21.89;101896.84;5130897;27;20421;-32
2022/03/21 09:31:50;;;;;;;14.10;6.38;;;;;;;11.97;22.74;101904.16;5112103;27;20035;-30
2022/03/21 09:34:17;;;;;;;18.58;7.75;;;;;;;12.05;22.10;101905.88;5130419;27;20030;-31
2022/03/21 09:36:44;;;;;;;9.65;4.43;;;;;;;11.79;21.72;101898.25;5112222;27;20126;-30
2022/03/21 09:39:09;;;;;;;20.80;8.50;;;;;;;11.79;21.60;101879.53;5111896;27;20034;-32
2022/03/21 09:41:36;;;;;;;25.95;10.18;;;;;;;11.54;22.52;101886.97;5130773;27;20034;-30
2022/03/21 09:44:07;;;;;;;16.92;6.85;;;;;;;11.62;21.42;101885.03;5112164;27;20038;-30
2022/03/21 09:46:33;;;;;;;8.80;5.00;;;;;;;11.36;21.57;101873.91;5130603;27;20118;-30
2022/03/21 09:48:59;;;;;;;51.25;23.25;;;;;;;11.61;23.01;101875.38;5111438;27;20495;-33
2022/03/21 09:51:29;;;;;;;8.35;4.88;;;;;;;11.59;23.95;101866.72;5130659;27;20027;-34
2022/03/21 09:53:56;;;;;;;9.05;4.85;;;;;;;11.05;21.89;101853.47;5130122;27;20026;-29
2022/03/21 09:56:23;;;;;;;8.05;4.43;;;;;;;11.64;23.27;101871.50;5111601;27;20665;-32
2022/03/21 09:58:49;;;;;;;9.13;4.93;;;;;;;12.17;23.13;101864.28;5111593;27;20034;-35
2022/03/21 10:01:16;;;;;;;9.52;5.10;;;;;;;12.34;23.59;101848.03;5111566;27;20413;-32
2022/03/21 10:03:43;;;;;;;13.75;5.05;;;;;;;12.91;20.38;101852.59;5111303;27;20510;-30
2022/03/21 10:06:31;;;;;;;11.60;6.65;;;;;;;12.38;21.63;101854.69;5111536;27;20042;-33
2022/03/21 10:09:17;;;;;;;6.95;3.85;;;;;;;12.34;21.28;101851.56;5111347;27;20019;-31
2022/03/21 10:11:51;;;;;;;8.20;3.60;;;;;;;12.19;20.82;101853.41;5111414;27;20035;-30
2022/03/21 10:14:26;;;;;;;7.60;3.88;;;;;;;12.50;21.31;101834.44;5110786;27;20046;-31
2022/03/21 10:16:57;;;;;;;7.60;3.78;;;;;;;12.73;20.26;101845.03;5111284;27;20074;-30
2022/03/21 10:19:23;;;;;;;9.80;4.78;;;;;;;12.30;21.31;101828.03;5111308;27;20053;-31
2022/03/21 10:22:09;;;;;;;24.65;15.65;;;;;;;12.80;22.22;101823.66;5111471;27;20030;-30
2022/03/21 10:24:44;;;;;;;12.65;10.13;;;;;;;12.92;21.89;101819.47;5129593;27;20030;-30
2022/03/21 10:27:39;;;;;;;15.73;10.60;;;;;;;12.85;21.86;101830.13;5111190;27;20119;-31
2022/03/21 10:30:13;;;;;;;12.23;8.82;;;;;;;13.33;22.88;101834.88;5111222;27;20027;-35
2022/03/21 10:32:53;;;;;;;16.05;9.77;;;;;;;13.39;22.80;101811.84;5110788;27;20521;-31
2022/03/21 10:35:23;;;;;;;21.92;13.88;;;;;;;13.33;20.96;101792.03;5130094;27;20090;-29
2022/03/21 10:38:01;;;;;;;6.85;3.72;;;;;;;13.69;20.10;101817.84;5111052;27;20558;-34
2022/03/21 10:40:42;;;;;;;12.00;4.18;;;;;;;13.50;19.94;101813.97;5110949;27;20027;-30
2022/03/21 10:43:10;;;;;;;7.88;3.92;;;;;;;13.51;19.77;101801.44;5129076;27;20039;-30
2022/03/21 10:45:42;;;;;;;;;;;;;;;13.97;20.34;101815.09;5130007;27;20031;-30
2022/03/21 10:48:14;;;;;;;9.98;4.40;;;;;;;14.63;19.91;101793.09;5129251;27;19907;-29
2022/03/21 10:50:42;;;;;;;11.27;5.20;;;;;;;14.60;19.10;101788.13;5129429;27;20039;-34
2022/03/21 10:53:09;;;;;;;;;;;;;;;14.27;20.10;101799.56;5110909;27;20483;-31
2022/03/21 10:55:36;;;;;;;18.52;9.43;;;;;;;14.43;19.67;101773.41;5129192;27;19915;-33
2022/03/21 10:58:02;;;;;;;10.15;5.35;;;;;;;14.47;20.70;101794.25;5110659;27;20462;-32
2022/03/21 11:00:28;;;;;;;22.13;7.68;;;;;;;13.82;21.99;101784.91;5110761;27;20027;-28
2022/03/21 11:03:06;;;;;;;10.10;4.88;;;;;;;14.15;19.26;101790.41;5110331;27;20091;-29
2022/03/21 11:05:43;;;;;;;13.68;5.75;;;;;;;14.66;20.03;101781.09;5129105;27;20024;-30
2022/03/21 11:08:12;;;;;;;21.65;9.85;;;;;;;14.88;20.77;101772.88;5128781;27;20407;-31
2022/03/21 11:10:38;;;;;;;10.35;4.88;;;;;;;14.81;18.56;101784.44;5110673;27;20106;-31
2022/03/21 11:13:06;;;;;;;7.30;3.97;;;;;;;14.50;18.20;101776.09;5110382;27;20027;-30
2022/03/21 11:15:35;;;;;;;9.68;3.92;;;;;;;14.86;19.28;101765.03;5110502;27;20027;-32
2022/03/21 11:18:01;;;;;;;8.40;4.38;;;;;;;14.95;19.52;101757.59;5110360;27;20120;-35
2022/03/21 11:20:31;;;;;;;12.90;6.72;;;;;;;14.67;18.84;101763.97;5128754;27;20042;-30
2022/03/21 11:22:57;;;;;;;23.92;6.78;;;;;;;15.21;18.49;101762.13;5110121;27;20042;-33
2022/03/21 11:25:32;;;;;;;6.20;3.70;;;;;;;15.74;17.79;101766.63;5109860;28;20513;-32
2022/03/21 11:28:16;;;;;;;12.63;5.50;;;;;;;15.61;18.87;101762.03;5128959;27;20058;-29
2022/03/21 11:31:00;;;;;;;7.60;3.95;;;;;;;16.29;17.91;101753.53;5128906;27;20031;-31
2022/03/21 11:33:48;;;;;;;7.05;3.75;;;;;;;16.93;17.55;101743.59;5128437;27;20058;-32
2022/03/21 11:36:15;;;;;;;7.90;3.72;;;;;;;16.47;16.82;101736.66;5110376;27;20426;-30
2022/03/21 11:38:41;;;;;;;9.57;4.18;;;;;;;16.68;17.89;101751.66;5128585;28;20035;-32